sensor_id;sensor_type;location;lat;lon;timestamp;temperature;humidity
24426;DHT22;12611;44.446;26.000;2023-12-04T00:00:14;8.60;79.10
24426;DHT22;12611;44.446;26.000;2023-12-04T00:02:47;8.60;78.50
24426;DHT22;12611;44.446;26.000;2023-12-04T00:05:15;8.60;78.10
24426;DHT22;12611;44.446;26.000;2023-12-04T00:07:48;8.60;78.00
24426;DHT22;12611;44.446;26.000;2023-12-04T00:10:17;8.70;78.20
24426;DHT22;12611;44.446;26.000;2023-12-04T00:12:45;8.60;77.70
24426;DHT22;12611;44.446;26.000;2023-12-04T00:15:14;8.60;78.00
24426;DHT22;12611;44.446;26.000;2023-12-04T00:17:44;8.60;77.70
24426;DHT22;12611;44.446;26.000;2023-12-04T00:20:12;8.70;77.50
24426;DHT22;12611;44.446;26.000;2023-12-04T00:22:51;8.70;78.00
24426;DHT22;12611;44.446;26.000;2023-12-04T00:25:22;8.70;77.50
24426;DHT22;12611;44.446;26.000;2023-12-04T00:27:51;8.70;76.90
24426;DHT22;12611;44.446;26.000;2023-12-04T00:30:23;8.60;76.90
24426;DHT22;12611;44.446;26.000;2023-12-04T00:32:51;8.60;76.70
24426;DHT22;12611;44.446;26.000;2023-12-04T00:35:22;8.50;76.30
24426;DHT22;12611;44.446;26.000;2023-12-04T00:38:01;8.50;76.60
24426;DHT22;12611;44.446;26.000;2023-12-04T00:40:33;8.50;77.00
24426;DHT22;12611;44.446;26.000;2023-12-04T00:43:04;8.50;76.90
24426;DHT22;12611;44.446;26.000;2023-12-04T00:45:34;8.40;76.80
24426;DHT22;12611;44.446;26.000;2023-12-04T00:48:03;8.40;76.30
24426;DHT22;12611;44.446;26.000;2023-12-04T00:50:33;8.50;76.90
24426;DHT22;12611;44.446;26.000;2023-12-04T00:53:03;8.50;77.00
24426;DHT22;12611;44.446;26.000;2023-12-04T00:55:33;8.40;76.60
24426;DHT22;12611;44.446;26.000;2023-12-04T00:58:03;8.40;76.70
24426;DHT22;12611;44.446;26.000;2023-12-04T01:00:33;8.40;76.90
24426;DHT22;12611;44.446;26.000;2023-12-04T01:03:03;8.40;76.90
24426;DHT22;12611;44.446;26.000;2023-12-04T01:05:31;8.40;77.20
24426;DHT22;12611;44.446;26.000;2023-12-04T01:08:01;8.30;76.70
24426;DHT22;12611;44.446;26.000;2023-12-04T01:10:33;8.30;76.90
24426;DHT22;12611;44.446;26.000;2023-12-04T01:13:02;8.30;77.50
24426;DHT22;12611;44.446;26.000;2023-12-04T01:15:33;8.30;77.30
24426;DHT22;12611;44.446;26.000;2023-12-04T01:18:03;8.30;77.00
24426;DHT22;12611;44.446;26.000;2023-12-04T01:20:32;8.30;77.10
24426;DHT22;12611;44.446;26.000;2023-12-04T01:23:06;8.30;76.90
24426;DHT22;12611;44.446;26.000;2023-12-04T01:25:36;8.30;77.30
24426;DHT22;12611;44.446;26.000;2023-12-04T01:28:06;8.20;77.50
24426;DHT22;12611;44.446;26.000;2023-12-04T01:30:36;8.20;77.50
24426;DHT22;12611;44.446;26.000;2023-12-04T01:33:10;8.30;77.60
24426;DHT22;12611;44.446;26.000;2023-12-04T01:35:45;8.30;77.70
24426;DHT22;12611;44.446;26.000;2023-12-04T01:38:15;8.30;77.60
24426;DHT22;12611;44.446;26.000;2023-12-04T01:40:47;8.40;77.60
24426;DHT22;12611;44.446;26.000;2023-12-04T01:43:15;8.30;77.30
24426;DHT22;12611;44.446;26.000;2023-12-04T01:45:45;8.30;77.50
24426;DHT22;12611;44.446;26.000;2023-12-04T01:48:15;8.30;77.20
24426;DHT22;12611;44.446;26.000;2023-12-04T01:50:44;8.30;77.10
24426;DHT22;12611;44.446;26.000;2023-12-04T01:53:15;8.30;77.30
24426;DHT22;12611;44.446;26.000;2023-12-04T01:55:44;8.30;77.30
24426;DHT22;12611;44.446;26.000;2023-12-04T01:58:15;8.30;76.70
24426;DHT22;12611;44.446;26.000;2023-12-04T02:00:44;8.30;76.60
24426;DHT22;12611;44.446;26.000;2023-12-04T02:03:14;8.30;76.80
24426;DHT22;12611;44.446;26.000;2023-12-04T02:05:44;8.30;76.70
24426;DHT22;12611;44.446;26.000;2023-12-04T02:08:18;8.30;76.40
24426;DHT22;12611;44.446;26.000;2023-12-04T02:10:47;8.30;76.60
24426;DHT22;12611;44.446;26.000;2023-12-04T02:13:20;8.30;76.50
24426;DHT22;12611;44.446;26.000;2023-12-04T02:15:52;8.30;76.60
24426;DHT22;12611;44.446;26.000;2023-12-04T02:18:24;8.20;76.30
24426;DHT22;12611;44.446;26.000;2023-12-04T02:20:54;8.30;76.40
24426;DHT22;12611;44.446;26.000;2023-12-04T02:23:23;8.20;76.20
24426;DHT22;12611;44.446;26.000;2023-12-04T02:25:58;8.20;76.10
24426;DHT22;12611;44.446;26.000;2023-12-04T02:28:33;8.20;76.30
24426;DHT22;12611;44.446;26.000;2023-12-04T02:31:05;8.20;76.20
24426;DHT22;12611;44.446;26.000;2023-12-04T02:33:36;8.20;76.40
24426;DHT22;12611;44.446;26.000;2023-12-04T02:36:10;8.20;76.40
24426;DHT22;12611;44.446;26.000;2023-12-04T02:38:39;8.20;76.10
24426;DHT22;12611;44.446;26.000;2023-12-04T02:41:10;8.10;76.20
24426;DHT22;12611;44.446;26.000;2023-12-04T02:43:39;8.10;76.50
24426;DHT22;12611;44.446;26.000;2023-12-04T02:46:12;8.10;76.50
24426;DHT22;12611;44.446;26.000;2023-12-04T02:48:41;8.10;76.60
24426;DHT22;12611;44.446;26.000;2023-12-04T02:51:10;8.10;76.70
24426;DHT22;12611;44.446;26.000;2023-12-04T02:53:40;8.10;76.80
24426;DHT22;12611;44.446;26.000;2023-12-04T02:56:12;8.10;76.80
24426;DHT22;12611;44.446;26.000;2023-12-04T02:58:42;8.10;77.10
24426;DHT22;12611;44.446;26.000;2023-12-04T03:01:11;8.10;77.20
24426;DHT22;12611;44.446;26.000;2023-12-04T03:03:40;8.00;77.10
24426;DHT22;12611;44.446;26.000;2023-12-04T03:06:10;8.00;77.20
24426;DHT22;12611;44.446;26.000;2023-12-04T03:08:40;8.00;77.20
24426;DHT22;12611;44.446;26.000;2023-12-04T03:11:18;8.00;77.20
24426;DHT22;12611;44.446;26.000;2023-12-04T03:13:48;8.00;77.30
24426;DHT22;12611;44.446;26.000;2023-12-04T03:16:17;8.10;77.50
24426;DHT22;12611;44.446;26.000;2023-12-04T03:18:50;8.10;77.60
24426;DHT22;12611;44.446;26.000;2023-12-04T03:21:19;8.00;77.50
24426;DHT22;12611;44.446;26.000;2023-12-04T03:23:54;8.10;77.60
24426;DHT22;12611;44.446;26.000;2023-12-04T03:26:25;8.10;77.70
24426;DHT22;12611;44.446;26.000;2023-12-04T03:28:57;8.10;77.80
24426;DHT22;12611;44.446;26.000;2023-12-04T03:31:25;8.10;77.70
24426;DHT22;12611;44.446;26.000;2023-12-04T03:33:56;8.10;77.80
24426;DHT22;12611;44.446;26.000;2023-12-04T03:36:26;8.10;77.80
24426;DHT22;12611;44.446;26.000;2023-12-04T03:38:56;8.10;78.00
24426;DHT22;12611;44.446;26.000;2023-12-04T03:41:31;8.10;77.90
24426;DHT22;12611;44.446;26.000;2023-12-04T03:44:00;8.10;78.10
24426;DHT22;12611;44.446;26.000;2023-12-04T03:46:32;8.00;78.10
24426;DHT22;12611;44.446;26.000;2023-12-04T03:49:02;8.10;78.30
24426;DHT22;12611;44.446;26.000;2023-12-04T03:51:31;8.10;78.40
24426;DHT22;12611;44.446;26.000;2023-12-04T03:54:06;8.00;78.60
24426;DHT22;12611;44.446;26.000;2023-12-04T03:56:36;8.00;78.80
24426;DHT22;12611;44.446;26.000;2023-12-04T03:59:05;8.00;78.90
24426;DHT22;12611;44.446;26.000;2023-12-04T04:01:34;8.10;79.00
24426;DHT22;12611;44.446;26.000;2023-12-04T04:04:07;8.10;79.00
24426;DHT22;12611;44.446;26.000;2023-12-04T04:06:42;8.10;79.10
24426;DHT22;12611;44.446;26.000;2023-12-04T04:09:12;8.10;79.10
24426;DHT22;12611;44.446;26.000;2023-12-04T04:11:45;8.10;79.10
24426;DHT22;12611;44.446;26.000;2023-12-04T04:14:14;8.10;79.60
24426;DHT22;12611;44.446;26.000;2023-12-04T04:16:44;8.10;79.70
24426;DHT22;12611;44.446;26.000;2023-12-04T04:19:16;8.20;79.90
24426;DHT22;12611;44.446;26.000;2023-12-04T04:21:45;8.10;80.20
24426;DHT22;12611;44.446;26.000;2023-12-04T04:24:14;8.10;80.30
24426;DHT22;12611;44.446;26.000;2023-12-04T04:26:44;8.10;80.50
24426;DHT22;12611;44.446;26.000;2023-12-04T04:29:13;8.20;80.70
24426;DHT22;12611;44.446;26.000;2023-12-04T04:31:42;8.20;80.90
24426;DHT22;12611;44.446;26.000;2023-12-04T04:34:10;8.20;81.30
24426;DHT22;12611;44.446;26.000;2023-12-04T04:36:47;8.10;81.10
24426;DHT22;12611;44.446;26.000;2023-12-04T04:39:16;8.10;81.30
24426;DHT22;12611;44.446;26.000;2023-12-04T04:41:46;8.10;81.40
24426;DHT22;12611;44.446;26.000;2023-12-04T04:44:15;8.10;81.40
24426;DHT22;12611;44.446;26.000;2023-12-04T04:46:45;8.10;81.50
24426;DHT22;12611;44.446;26.000;2023-12-04T04:49:15;8.10;81.50
24426;DHT22;12611;44.446;26.000;2023-12-04T04:51:51;8.10;81.40
24426;DHT22;12611;44.446;26.000;2023-12-04T04:54:20;8.10;81.50
24426;DHT22;12611;44.446;26.000;2023-12-04T04:56:51;8.10;81.50
24426;DHT22;12611;44.446;26.000;2023-12-04T04:59:20;8.10;81.50
24426;DHT22;12611;44.446;26.000;2023-12-04T05:01:49;8.10;81.50
24426;DHT22;12611;44.446;26.000;2023-12-04T05:04:20;8.10;81.50
24426;DHT22;12611;44.446;26.000;2023-12-04T05:06:52;8.10;81.40
24426;DHT22;12611;44.446;26.000;2023-12-04T05:09:23;8.10;81.30
24426;DHT22;12611;44.446;26.000;2023-12-04T05:11:55;8.00;81.20
24426;DHT22;12611;44.446;26.000;2023-12-04T05:14:24;8.00;81.30
24426;DHT22;12611;44.446;26.000;2023-12-04T05:16:54;8.00;81.20
24426;DHT22;12611;44.446;26.000;2023-12-04T05:19:23;8.00;81.20
24426;DHT22;12611;44.446;26.000;2023-12-04T05:21:55;7.90;81.20
24426;DHT22;12611;44.446;26.000;2023-12-04T05:24:25;8.00;81.50
24426;DHT22;12611;44.446;26.000;2023-12-04T05:27:00;7.90;81.50
24426;DHT22;12611;44.446;26.000;2023-12-04T05:29:30;7.90;81.50
24426;DHT22;12611;44.446;26.000;2023-12-04T05:31:59;7.90;81.40
24426;DHT22;12611;44.446;26.000;2023-12-04T05:34:29;7.90;81.60
24426;DHT22;12611;44.446;26.000;2023-12-04T05:36:58;7.90;81.50
24426;DHT22;12611;44.446;26.000;2023-12-04T05:39:27;7.90;81.50
24426;DHT22;12611;44.446;26.000;2023-12-04T05:41:58;7.90;81.60
24426;DHT22;12611;44.446;26.000;2023-12-04T05:44:28;7.90;81.60
24426;DHT22;12611;44.446;26.000;2023-12-04T05:46:58;7.90;81.60
24426;DHT22;12611;44.446;26.000;2023-12-04T05:49:28;7.90;81.60
24426;DHT22;12611;44.446;26.000;2023-12-04T05:51:58;7.90;81.60
24426;DHT22;12611;44.446;26.000;2023-12-04T05:54:26;7.80;81.60
24426;DHT22;12611;44.446;26.000;2023-12-04T05:56:59;7.80;81.70
24426;DHT22;12611;44.446;26.000;2023-12-04T05:59:29;7.80;81.80
24426;DHT22;12611;44.446;26.000;2023-12-04T06:02:02;7.80;81.80
24426;DHT22;12611;44.446;26.000;2023-12-04T06:04:33;7.80;81.80
24426;DHT22;12611;44.446;26.000;2023-12-04T06:07:02;7.80;81.80
24426;DHT22;12611;44.446;26.000;2023-12-04T06:09:31;7.80;81.70
24426;DHT22;12611;44.446;26.000;2023-12-04T06:12:04;7.80;82.30
24426;DHT22;12611;44.446;26.000;2023-12-04T06:14:44;7.90;81.50
24426;DHT22;12611;44.446;26.000;2023-12-04T06:17:14;7.80;81.30
24426;DHT22;12611;44.446;26.000;2023-12-04T06:19:45;7.80;81.20
24426;DHT22;12611;44.446;26.000;2023-12-04T06:22:14;7.80;81.20
24426;DHT22;12611;44.446;26.000;2023-12-04T06:24:49;7.80;81.10
24426;DHT22;12611;44.446;26.000;2023-12-04T06:27:21;7.80;81.20
24426;DHT22;12611;44.446;26.000;2023-12-04T06:29:54;7.90;81.20
24426;DHT22;12611;44.446;26.000;2023-12-04T06:32:33;7.90;81.20
24426;DHT22;12611;44.446;26.000;2023-12-04T06:35:04;7.90;80.80
24426;DHT22;12611;44.446;26.000;2023-12-04T06:37:35;7.90;80.70
24426;DHT22;12611;44.446;26.000;2023-12-04T06:40:06;7.80;80.50
24426;DHT22;12611;44.446;26.000;2023-12-04T06:42:40;7.90;80.50
24426;DHT22;12611;44.446;26.000;2023-12-04T06:45:12;7.90;80.50
24426;DHT22;12611;44.446;26.000;2023-12-04T06:47:43;7.90;80.30
24426;DHT22;12611;44.446;26.000;2023-12-04T06:50:14;7.90;80.10
24426;DHT22;12611;44.446;26.000;2023-12-04T06:52:44;7.90;80.70
24426;DHT22;12611;44.446;26.000;2023-12-04T06:55:16;7.90;80.30
24426;DHT22;12611;44.446;26.000;2023-12-04T06:57:47;7.90;80.10
24426;DHT22;12611;44.446;26.000;2023-12-04T07:00:19;7.90;79.80
24426;DHT22;12611;44.446;26.000;2023-12-04T07:02:49;7.90;79.20
24426;DHT22;12611;44.446;26.000;2023-12-04T07:05:20;7.90;79.30
24426;DHT22;12611;44.446;26.000;2023-12-04T07:07:49;7.90;79.30
24426;DHT22;12611;44.446;26.000;2023-12-04T07:10:18;8.00;79.50
24426;DHT22;12611;44.446;26.000;2023-12-04T07:12:49;7.90;79.20
24426;DHT22;12611;44.446;26.000;2023-12-04T07:15:18;7.90;79.20
24426;DHT22;12611;44.446;26.000;2023-12-04T07:17:48;8.00;79.40
24426;DHT22;12611;44.446;26.000;2023-12-04T07:20:23;8.00;79.40
24426;DHT22;12611;44.446;26.000;2023-12-04T07:22:52;8.00;79.30
24426;DHT22;12611;44.446;26.000;2023-12-04T07:25:22;8.00;79.30
24426;DHT22;12611;44.446;26.000;2023-12-04T07:27:55;8.00;79.00
24426;DHT22;12611;44.446;26.000;2023-12-04T07:30:33;8.00;79.20
24426;DHT22;12611;44.446;26.000;2023-12-04T07:33:02;8.00;78.90
24426;DHT22;12611;44.446;26.000;2023-12-04T07:35:35;8.00;78.80
24426;DHT22;12611;44.446;26.000;2023-12-04T07:38:04;8.00;79.00
24426;DHT22;12611;44.446;26.000;2023-12-04T07:40:33;8.00;79.00
24426;DHT22;12611;44.446;26.000;2023-12-04T07:43:03;8.00;79.10
24426;DHT22;12611;44.446;26.000;2023-12-04T07:45:33;8.00;78.70
24426;DHT22;12611;44.446;26.000;2023-12-04T07:48:06;8.00;78.90
24426;DHT22;12611;44.446;26.000;2023-12-04T07:50:36;8.00;79.00
24426;DHT22;12611;44.446;26.000;2023-12-04T07:53:05;8.00;78.60
24426;DHT22;12611;44.446;26.000;2023-12-04T07:55:37;8.00;78.40
24426;DHT22;12611;44.446;26.000;2023-12-04T07:58:07;8.00;78.70
24426;DHT22;12611;44.446;26.000;2023-12-04T08:00:36;8.10;79.70
24426;DHT22;12611;44.446;26.000;2023-12-04T08:03:07;8.10;79.10
24426;DHT22;12611;44.446;26.000;2023-12-04T08:05:36;8.20;79.10
24426;DHT22;12611;44.446;26.000;2023-12-04T08:08:06;8.20;79.00
24426;DHT22;12611;44.446;26.000;2023-12-04T08:10:37;8.20;79.00
24426;DHT22;12611;44.446;26.000;2023-12-04T08:13:12;8.20;78.90
24426;DHT22;12611;44.446;26.000;2023-12-04T08:15:42;8.20;78.80
24426;DHT22;12611;44.446;26.000;2023-12-04T08:18:12;8.30;78.80
24426;DHT22;12611;44.446;26.000;2023-12-04T08:20:41;8.30;78.90
24426;DHT22;12611;44.446;26.000;2023-12-04T08:23:11;8.30;78.80
24426;DHT22;12611;44.446;26.000;2023-12-04T08:25:39;8.40;78.80
24426;DHT22;12611;44.446;26.000;2023-12-04T08:28:16;8.40;78.50
24426;DHT22;12611;44.446;26.000;2023-12-04T08:30:45;8.40;78.60
24426;DHT22;12611;44.446;26.000;2023-12-04T08:33:17;8.40;78.60
24426;DHT22;12611;44.446;26.000;2023-12-04T08:35:49;8.40;78.30
24426;DHT22;12611;44.446;26.000;2023-12-04T08:38:25;8.50;78.30
24426;DHT22;12611;44.446;26.000;2023-12-04T08:41:05;8.50;78.00
24426;DHT22;12611;44.446;26.000;2023-12-04T08:43:38;8.50;77.80
24426;DHT22;12611;44.446;26.000;2023-12-04T08:46:07;8.50;77.70
24426;DHT22;12611;44.446;26.000;2023-12-04T08:48:41;8.50;77.70
24426;DHT22;12611;44.446;26.000;2023-12-04T08:51:15;8.50;77.80
24426;DHT22;12611;44.446;26.000;2023-12-04T08:53:46;8.50;77.40
24426;DHT22;12611;44.446;26.000;2023-12-04T08:56:14;8.50;77.00
24426;DHT22;12611;44.446;26.000;2023-12-04T08:58:54;8.50;76.90
24426;DHT22;12611;44.446;26.000;2023-12-04T09:01:24;8.50;76.90
24426;DHT22;12611;44.446;26.000;2023-12-04T09:03:53;8.50;76.70
24426;DHT22;12611;44.446;26.000;2023-12-04T09:06:23;8.50;76.70
24426;DHT22;12611;44.446;26.000;2023-12-04T09:09:11;8.40;76.80
24426;DHT22;12611;44.446;26.000;2023-12-04T09:11:43;8.40;76.60
24426;DHT22;12611;44.446;26.000;2023-12-04T09:14:13;8.50;76.80
24426;DHT22;12611;44.446;26.000;2023-12-04T09:16:44;8.50;76.50
24426;DHT22;12611;44.446;26.000;2023-12-04T09:19:19;8.50;76.40
24426;DHT22;12611;44.446;26.000;2023-12-04T09:21:48;8.50;76.30
24426;DHT22;12611;44.446;26.000;2023-12-04T09:24:36;8.60;76.20
24426;DHT22;12611;44.446;26.000;2023-12-04T09:27:08;8.60;76.10
24426;DHT22;12611;44.446;26.000;2023-12-04T09:29:40;8.60;76.10
24426;DHT22;12611;44.446;26.000;2023-12-04T09:32:14;8.60;75.70
24426;DHT22;12611;44.446;26.000;2023-12-04T09:34:51;8.50;73.90
24426;DHT22;12611;44.446;26.000;2023-12-04T09:37:22;8.50;74.50
24426;DHT22;12611;44.446;26.000;2023-12-04T09:39:58;8.50;74.80
24426;DHT22;12611;44.446;26.000;2023-12-04T09:42:31;8.50;74.40
24426;DHT22;12611;44.446;26.000;2023-12-04T09:45:02;8.50;74.10
24426;DHT22;12611;44.446;26.000;2023-12-04T09:47:33;8.50;74.50
24426;DHT22;12611;44.446;26.000;2023-12-04T09:50:02;8.50;74.80
24426;DHT22;12611;44.446;26.000;2023-12-04T09:52:34;8.50;75.10
24426;DHT22;12611;44.446;26.000;2023-12-04T09:55:04;8.60;75.10
24426;DHT22;12611;44.446;26.000;2023-12-04T09:57:35;8.50;74.00
24426;DHT22;12611;44.446;26.000;2023-12-04T10:00:07;8.60;74.50
24426;DHT22;12611;44.446;26.000;2023-12-04T10:02:37;8.50;74.40
24426;DHT22;12611;44.446;26.000;2023-12-04T10:05:43;8.50;75.50
24426;DHT22;12611;44.446;26.000;2023-12-04T10:08:15;8.50;74.30
24426;DHT22;12611;44.446;26.000;2023-12-04T10:10:46;8.40;74.00
24426;DHT22;12611;44.446;26.000;2023-12-04T10:13:15;8.40;73.70
24426;DHT22;12611;44.446;26.000;2023-12-04T10:16:06;8.40;73.80
24426;DHT22;12611;44.446;26.000;2023-12-04T10:18:37;8.50;74.40
24426;DHT22;12611;44.446;26.000;2023-12-04T10:21:07;8.50;74.20
24426;DHT22;12611;44.446;26.000;2023-12-04T10:23:47;8.60;74.30
24426;DHT22;12611;44.446;26.000;2023-12-04T10:26:17;8.60;74.10
24426;DHT22;12611;44.446;26.000;2023-12-04T10:28:58;8.60;74.10
24426;DHT22;12611;44.446;26.000;2023-12-04T10:31:32;8.70;74.40
24426;DHT22;12611;44.446;26.000;2023-12-04T10:34:02;8.80;74.20
24426;DHT22;12611;44.446;26.000;2023-12-04T10:36:33;8.90;74.00
24426;DHT22;12611;44.446;26.000;2023-12-04T10:39:02;9.00;74.30
24426;DHT22;12611;44.446;26.000;2023-12-04T10:41:34;9.10;73.80
24426;DHT22;12611;44.446;26.000;2023-12-04T10:44:04;9.20;73.60
24426;DHT22;12611;44.446;26.000;2023-12-04T10:46:48;9.30;73.10
24426;DHT22;12611;44.446;26.000;2023-12-04T10:49:17;9.40;73.20
24426;DHT22;12611;44.446;26.000;2023-12-04T10:51:49;9.50;72.80
24426;DHT22;12611;44.446;26.000;2023-12-04T10:54:20;9.60;73.00
24426;DHT22;12611;44.446;26.000;2023-12-04T10:56:52;9.60;72.80
24426;DHT22;12611;44.446;26.000;2023-12-04T10:59:28;9.70;72.00
24426;DHT22;12611;44.446;26.000;2023-12-04T11:02:05;9.80;72.10
24426;DHT22;12611;44.446;26.000;2023-12-04T11:04:40;9.90;72.20
24426;DHT22;12611;44.446;26.000;2023-12-04T11:07:18;10.00;72.10
24426;DHT22;12611;44.446;26.000;2023-12-04T11:09:49;10.00;69.80
24426;DHT22;12611;44.446;26.000;2023-12-04T11:12:21;10.10;70.60
24426;DHT22;12611;44.446;26.000;2023-12-04T11:14:56;10.20;70.50
24426;DHT22;12611;44.446;26.000;2023-12-04T11:17:31;10.30;70.50
24426;DHT22;12611;44.446;26.000;2023-12-04T11:20:09;10.40;69.80
24426;DHT22;12611;44.446;26.000;2023-12-04T11:22:40;10.50;69.00
24426;DHT22;12611;44.446;26.000;2023-12-04T11:25:11;10.60;69.80
24426;DHT22;12611;44.446;26.000;2023-12-04T11:27:43;10.60;68.70
24426;DHT22;12611;44.446;26.000;2023-12-04T11:30:14;10.60;67.50
24426;DHT22;12611;44.446;26.000;2023-12-04T11:32:48;10.70;67.60
24426;DHT22;12611;44.446;26.000;2023-12-04T11:35:20;10.80;68.10
24426;DHT22;12611;44.446;26.000;2023-12-04T11:37:53;10.80;68.50
24426;DHT22;12611;44.446;26.000;2023-12-04T11:40:23;10.90;68.70
24426;DHT22;12611;44.446;26.000;2023-12-04T11:42:53;10.90;68.40
24426;DHT22;12611;44.446;26.000;2023-12-04T11:45:22;11.00;67.30
24426;DHT22;12611;44.446;26.000;2023-12-04T11:47:54;11.00;67.00
24426;DHT22;12611;44.446;26.000;2023-12-04T11:50:24;11.10;67.10
24426;DHT22;12611;44.446;26.000;2023-12-04T11:52:54;11.10;66.90
24426;DHT22;12611;44.446;26.000;2023-12-04T11:55:25;11.10;66.90
24426;DHT22;12611;44.446;26.000;2023-12-04T11:57:55;11.10;65.50
24426;DHT22;12611;44.446;26.000;2023-12-04T12:00:24;11.20;66.10
24426;DHT22;12611;44.446;26.000;2023-12-04T12:03:06;11.20;66.50
24426;DHT22;12611;44.446;26.000;2023-12-04T12:05:49;11.20;66.20
24426;DHT22;12611;44.446;26.000;2023-12-04T12:08:23;11.10;65.60
24426;DHT22;12611;44.446;26.000;2023-12-04T12:10:56;11.20;66.10
24426;DHT22;12611;44.446;26.000;2023-12-04T12:13:26;11.20;66.20
24426;DHT22;12611;44.446;26.000;2023-12-04T12:15:57;11.20;66.60
24426;DHT22;12611;44.446;26.000;2023-12-04T12:18:30;11.10;65.60
24426;DHT22;12611;44.446;26.000;2023-12-04T12:21:00;11.20;66.20
24426;DHT22;12611;44.446;26.000;2023-12-04T12:23:29;11.20;66.30
24426;DHT22;12611;44.446;26.000;2023-12-04T12:25:59;11.30;66.20
24426;DHT22;12611;44.446;26.000;2023-12-04T12:28:29;11.30;65.80
24426;DHT22;12611;44.446;26.000;2023-12-04T12:31:01;11.20;64.90
24426;DHT22;12611;44.446;26.000;2023-12-04T12:33:35;11.20;64.90
24426;DHT22;12611;44.446;26.000;2023-12-04T12:36:09;11.20;66.10
24426;DHT22;12611;44.446;26.000;2023-12-04T12:38:40;11.20;65.30
24426;DHT22;12611;44.446;26.000;2023-12-04T12:41:09;11.10;64.90
24426;DHT22;12611;44.446;26.000;2023-12-04T12:43:40;11.10;64.40
24426;DHT22;12611;44.446;26.000;2023-12-04T12:46:11;11.00;64.60
24426;DHT22;12611;44.446;26.000;2023-12-04T12:48:44;11.00;64.60
24426;DHT22;12611;44.446;26.000;2023-12-04T12:51:15;11.10;64.80
24426;DHT22;12611;44.446;26.000;2023-12-04T12:53:45;11.20;64.70
24426;DHT22;12611;44.446;26.000;2023-12-04T12:56:20;11.30;65.60
24426;DHT22;12611;44.446;26.000;2023-12-04T12:58:54;11.50;65.80
24426;DHT22;12611;44.446;26.000;2023-12-04T13:01:23;11.70;66.80
24426;DHT22;12611;44.446;26.000;2023-12-04T13:04:04;12.00;65.50
24426;DHT22;12611;44.446;26.000;2023-12-04T13:06:37;12.20;65.00
24426;DHT22;12611;44.446;26.000;2023-12-04T13:09:06;12.20;62.60
24426;DHT22;12611;44.446;26.000;2023-12-04T13:11:35;12.40;62.20
24426;DHT22;12611;44.446;26.000;2023-12-04T13:14:04;12.50;62.30
24426;DHT22;12611;44.446;26.000;2023-12-04T13:16:33;12.60;61.30
24426;DHT22;12611;44.446;26.000;2023-12-04T13:19:04;13.00;58.50
24426;DHT22;12611;44.446;26.000;2023-12-04T13:21:34;13.30;58.00
24426;DHT22;12611;44.446;26.000;2023-12-04T13:24:05;14.60;57.80
24426;DHT22;12611;44.446;26.000;2023-12-04T13:26:36;15.20;55.40
24426;DHT22;12611;44.446;26.000;2023-12-04T13:29:06;14.80;55.50
24426;DHT22;12611;44.446;26.000;2023-12-04T13:31:35;14.50;56.50
24426;DHT22;12611;44.446;26.000;2023-12-04T13:34:06;14.30;55.90
24426;DHT22;12611;44.446;26.000;2023-12-04T13:36:35;14.20;55.80
24426;DHT22;12611;44.446;26.000;2023-12-04T13:39:06;14.00;55.70
24426;DHT22;12611;44.446;26.000;2023-12-04T13:41:45;13.90;55.90
24426;DHT22;12611;44.446;26.000;2023-12-04T13:44:34;14.00;56.30
24426;DHT22;12611;44.446;26.000;2023-12-04T13:47:03;14.50;55.70
24426;DHT22;12611;44.446;26.000;2023-12-04T13:49:35;14.50;54.80
24426;DHT22;12611;44.446;26.000;2023-12-04T13:52:04;13.90;54.40
24426;DHT22;12611;44.446;26.000;2023-12-04T13:54:36;13.40;55.00
24426;DHT22;12611;44.446;26.000;2023-12-04T13:57:12;13.00;56.30
24426;DHT22;12611;44.446;26.000;2023-12-04T13:59:49;12.70;56.90
24426;DHT22;12611;44.446;26.000;2023-12-04T14:02:18;12.40;57.30
24426;DHT22;12611;44.446;26.000;2023-12-04T14:04:56;12.20;57.80
24426;DHT22;12611;44.446;26.000;2023-12-04T14:07:25;12.00;58.10
24426;DHT22;12611;44.446;26.000;2023-12-04T14:09:55;11.80;58.70
24426;DHT22;12611;44.446;26.000;2023-12-04T14:12:26;11.60;59.00
24426;DHT22;12611;44.446;26.000;2023-12-04T14:14:56;11.40;59.20
24426;DHT22;12611;44.446;26.000;2023-12-04T14:17:26;11.20;59.60
24426;DHT22;12611;44.446;26.000;2023-12-04T14:19:56;11.00;60.20
24426;DHT22;12611;44.446;26.000;2023-12-04T14:22:25;10.80;60.40
24426;DHT22;12611;44.446;26.000;2023-12-04T14:24:59;10.60;61.00
24426;DHT22;12611;44.446;26.000;2023-12-04T14:27:32;10.40;61.40
24426;DHT22;12611;44.446;26.000;2023-12-04T14:30:03;10.10;61.70
24426;DHT22;12611;44.446;26.000;2023-12-04T14:32:34;10.10;62.20
24426;DHT22;12611;44.446;26.000;2023-12-04T14:35:15;9.90;62.50
24426;DHT22;12611;44.446;26.000;2023-12-04T14:37:44;9.80;63.00
24426;DHT22;12611;44.446;26.000;2023-12-04T14:40:14;9.70;63.40
24426;DHT22;12611;44.446;26.000;2023-12-04T14:42:46;9.70;64.00
24426;DHT22;12611;44.446;26.000;2023-12-04T14:45:19;9.60;64.30
24426;DHT22;12611;44.446;26.000;2023-12-04T14:47:50;9.50;64.40
24426;DHT22;12611;44.446;26.000;2023-12-04T14:50:25;9.40;64.60
24426;DHT22;12611;44.446;26.000;2023-12-04T14:52:53;9.30;64.80
24426;DHT22;12611;44.446;26.000;2023-12-04T14:55:28;9.20;65.00
24426;DHT22;12611;44.446;26.000;2023-12-04T14:58:35;9.10;65.30
24426;DHT22;12611;44.446;26.000;2023-12-04T15:01:29;9.10;65.70
24426;DHT22;12611;44.446;26.000;2023-12-04T15:04:21;9.00;66.00
24426;DHT22;12611;44.446;26.000;2023-12-04T15:07:05;8.90;66.30
24426;DHT22;12611;44.446;26.000;2023-12-04T15:09:58;8.90;66.50
24426;DHT22;12611;44.446;26.000;2023-12-04T15:12:45;8.80;66.70
24426;DHT22;12611;44.446;26.000;2023-12-04T15:15:35;8.80;67.00
24426;DHT22;12611;44.446;26.000;2023-12-04T15:18:26;8.70;67.00
24426;DHT22;12611;44.446;26.000;2023-12-04T15:21:02;8.70;67.20
24426;DHT22;12611;44.446;26.000;2023-12-04T15:23:32;8.60;67.70
24426;DHT22;12611;44.446;26.000;2023-12-04T15:26:00;8.60;67.90
24426;DHT22;12611;44.446;26.000;2023-12-04T15:28:29;8.50;67.90
24426;DHT22;12611;44.446;26.000;2023-12-04T15:30:57;8.50;68.10
24426;DHT22;12611;44.446;26.000;2023-12-04T15:33:25;8.40;68.30
24426;DHT22;12611;44.446;26.000;2023-12-04T15:35:55;8.30;68.50
24426;DHT22;12611;44.446;26.000;2023-12-04T15:38:24;8.30;68.80
24426;DHT22;12611;44.446;26.000;2023-12-04T15:40:56;8.20;69.20
24426;DHT22;12611;44.446;26.000;2023-12-04T15:43:30;8.20;69.30
24426;DHT22;12611;44.446;26.000;2023-12-04T15:46:00;8.20;69.30
24426;DHT22;12611;44.446;26.000;2023-12-04T15:48:29;8.10;69.30
24426;DHT22;12611;44.446;26.000;2023-12-04T15:50:57;8.10;69.40
24426;DHT22;12611;44.446;26.000;2023-12-04T15:53:27;8.10;69.60
24426;DHT22;12611;44.446;26.000;2023-12-04T15:55:56;8.10;69.90